createdAt,value
2017-11-06T08:38:50.657Z,18.03
2017-11-06T08:41:23.361Z,19.80
2017-11-06T08:43:55.272Z,21.60
2017-11-06T08:46:27.152Z,20.57
2017-11-06T08:48:59.839Z,19.20
2017-11-06T08:51:32.480Z,21.17
2017-11-06T08:54:04.404Z,17.33
2017-11-06T08:56:36.279Z,17.93
2017-11-06T08:59:08.200Z,15.97
2017-11-06T09:01:40.858Z,18.77
2017-11-06T09:04:12.762Z,18.63
2017-11-06T09:06:44.652Z,19.17
2017-11-06T09:09:16.563Z,18.07
2017-11-06T09:11:49.216Z,18.30
2017-11-06T09:14:21.191Z,14.67
2017-11-06T09:16:53.843Z,16.87
2017-11-06T09:19:25.763Z,13.90
2017-11-06T09:21:57.640Z,17.93
2017-11-06T09:24:29.559Z,19.30
2017-11-06T09:27:03.205Z,16.30
2017-11-06T09:29:35.096Z,15.87
2017-11-06T09:32:06.992Z,15.23
2017-11-06T09:34:39.654Z,18.00
2017-11-06T09:37:12.296Z,20.07
2017-11-06T09:39:44.197Z,24.70
2017-11-06T09:42:16.856Z,18.77
2017-11-06T09:44:48.769Z,25.17
2017-11-06T09:47:20.657Z,20.57
2017-11-06T09:49:52.580Z,18.43
2017-11-06T09:52:24.463Z,19.23
2017-11-06T09:54:56.380Z,18.80
2017-11-06T09:57:29.036Z,19.47
2017-11-06T10:00:00.952Z,18.90
2017-11-06T10:02:32.867Z,12.57
2017-11-06T10:05:04.763Z,17.00
2017-11-06T10:07:36.655Z,21.60
2017-11-06T10:10:08.601Z,18.87
2017-11-06T10:12:40.474Z,12.70
2017-11-06T10:15:12.387Z,20.93
2017-11-06T10:17:45.042Z,19.53
2017-11-06T10:20:16.967Z,21.97
2017-11-06T10:22:48.849Z,23.00
2017-11-06T10:25:20.776Z,24.47
2017-11-06T10:27:52.655Z,21.43
2017-11-06T10:30:24.580Z,23.27
2017-11-06T10:32:56.473Z,24.27
2017-11-06T10:35:28.375Z,20.40
2017-11-06T10:38:01.034Z,18.53
2017-11-06T10:40:32.990Z,17.27
2017-11-06T10:43:04.879Z,21.10
2017-11-06T10:45:37.563Z,21.03
2017-11-06T10:48:10.233Z,21.37
2017-11-06T10:50:42.154Z,22.20
2017-11-06T10:53:14.050Z,16.13
2017-11-06T10:55:45.965Z,24.57
2017-11-06T10:58:17.840Z,22.67
2017-11-06T11:00:49.765Z,20.03
2017-11-06T11:03:21.656Z,20.93
2017-11-06T11:05:53.580Z,15.20
2017-11-06T11:08:25.477Z,17.10
2017-11-06T11:10:57.408Z,16.57
2017-11-06T11:13:29.300Z,15.47
2017-11-06T11:16:01.205Z,17.67
2017-11-06T11:18:33.851Z,22.17
2017-11-06T11:21:05.775Z,22.87
2017-11-06T11:23:37.943Z,19.23
2017-11-06T11:26:09.892Z,24.40
2017-11-06T11:28:41.792Z,22.63
2017-11-06T11:31:13.697Z,22.53
2017-11-06T11:33:46.336Z,18.53
2017-11-06T11:36:18.271Z,16.80
2017-11-06T11:38:50.156Z,18.73
2017-11-06T11:41:22.048Z,22.73
2017-11-06T11:43:53.932Z,24.90
2017-11-06T11:46:25.856Z,18.10
2017-11-06T11:48:57.744Z,21.03
2017-11-06T11:51:30.430Z,26.53
2017-11-06T11:54:03.072Z,19.80
2017-11-06T11:56:34.989Z,22.27
2017-11-06T11:59:06.868Z,23.77
2017-11-06T12:01:38.789Z,19.03
2017-11-06T12:04:11.444Z,24.33
2017-11-06T12:06:43.345Z,23.87
2017-11-06T12:09:15.236Z,26.20
2017-11-06T12:11:47.473Z,25.63
2017-11-06T12:14:19.365Z,23.57
2017-11-06T12:16:51.327Z,19.70
2017-11-06T12:19:23.207Z,19.87
2017-11-06T12:21:55.136Z,17.70
2017-11-06T12:24:27.079Z,19.67
2017-11-06T12:26:59.009Z,14.77
2017-11-06T12:29:32.162Z,24.13
2017-11-06T12:32:05.680Z,15.37
2017-11-06T12:34:37.597Z,17.33
2017-11-06T12:37:09.561Z,14.60
2017-11-06T12:39:41.719Z,20.10
2017-11-06T12:42:13.639Z,16.73
2017-11-06T12:44:45.527Z,14.90
2017-11-06T12:47:17.447Z,20.10
2017-11-06T12:49:49.360Z,16.77
2017-11-06T12:52:21.256Z,16.63
2017-11-06T12:57:32.388Z,19.23
2017-11-06T13:00:05.074Z,16.23
2017-11-06T13:02:37.764Z,19.57
2017-11-06T13:05:09.654Z,18.27
2017-11-06T13:07:42.352Z,24.47
2017-11-06T13:10:14.250Z,20.17
2017-11-06T13:12:46.945Z,21.63
2017-11-06T13:15:18.836Z,21.60
2017-11-06T13:17:50.772Z,23.83
2017-11-06T13:20:22.669Z,22.27
2017-11-06T13:22:54.595Z,18.73
2017-11-06T13:25:26.479Z,13.73
2017-11-06T13:27:58.379Z,23.67
2017-11-06T13:30:30.274Z,13.77
2017-11-06T13:33:02.204Z,20.10
2017-11-06T13:35:34.867Z,24.33
2017-11-06T13:38:06.842Z,21.57
2017-11-06T13:40:39.516Z,18.67
2017-11-06T13:43:12.225Z,19.93
2017-11-06T13:45:44.112Z,16.53
2017-11-06T13:48:16.130Z,21.33
2017-11-06T13:50:48.788Z,21.07
2017-11-06T13:53:20.684Z,22.07
2017-11-06T13:55:53.346Z,29.20
2017-11-06T13:58:25.273Z,24.20
2017-11-06T14:00:57.160Z,23.10
2017-11-06T14:03:29.095Z,20.20
2017-11-06T14:06:00.980Z,27.10
2017-11-06T14:08:32.909Z,20.97
2017-11-06T14:11:04.799Z,24.20
2017-11-06T14:13:36.720Z,26.13
2017-11-06T14:16:08.608Z,22.70
2017-11-06T14:18:40.523Z,23.37
2017-11-06T14:21:12.407Z,22.67
2017-11-06T14:23:44.321Z,25.53
2017-11-06T14:26:16.968Z,19.23
2017-11-06T14:28:48.880Z,15.73
2017-11-06T14:31:20.772Z,23.40
2017-11-06T14:33:52.660Z,25.83
2017-11-06T14:36:24.763Z,19.73
2017-11-06T14:38:56.680Z,24.07
2017-11-06T14:41:28.571Z,23.53
2017-11-06T14:44:01.416Z,18.67
2017-11-06T14:46:33.308Z,21.63
2017-11-06T14:49:05.992Z,19.07
2017-11-06T14:51:38.639Z,20.30
2017-11-06T14:54:10.560Z,19.43
2017-11-06T14:56:42.435Z,20.17
2017-11-06T14:59:14.640Z,18.60
2017-11-06T15:01:46.519Z,23.33
2017-11-06T15:04:19.221Z,20.80
2017-11-06T15:06:51.114Z,18.80
2017-11-06T15:09:23.042Z,27.27
2017-11-06T15:11:54.934Z,21.67
2017-11-06T15:14:27.606Z,22.93
2017-11-06T15:16:59.488Z,22.40
2017-11-06T15:19:31.399Z,19.47
2017-11-06T15:22:04.444Z,19.40
2017-11-06T15:24:36.362Z,20.27
2017-11-06T15:27:08.240Z,16.57
2017-11-06T15:29:40.153Z,22.23
2017-11-06T15:32:12.048Z,29.53
2017-11-06T15:34:43.962Z,21.43
2017-11-06T15:37:16.612Z,18.40
2017-11-06T15:39:48.528Z,20.00
2017-11-06T15:42:20.405Z,17.73
2017-11-06T15:44:52.336Z,16.30
2017-11-06T15:47:24.233Z,19.43
2017-11-06T15:49:56.220Z,17.27
2017-11-06T15:52:28.108Z,15.43
2017-11-06T15:55:00.795Z,22.90
2017-11-06T15:57:33.440Z,17.43
2017-11-06T16:00:05.655Z,17.27
2017-11-06T16:02:37.544Z,16.37
2017-11-06T16:05:09.464Z,17.43
2017-11-06T16:07:42.116Z,14.83
2017-11-06T16:10:14.033Z,17.47
2017-11-06T16:12:46.648Z,21.10
2017-11-06T16:15:18.604Z,21.20
2017-11-06T16:17:50.491Z,23.40
2017-11-06T16:20:23.171Z,24.43
2017-11-06T16:22:55.828Z,26.10
2017-11-06T16:25:27.740Z,21.63
2017-11-06T16:27:59.626Z,17.90
2017-11-06T16:30:31.512Z,25.83
2017-11-06T16:33:03.392Z,19.87
2017-11-06T16:35:36.073Z,19.23
2017-11-06T16:38:08.728Z,22.00
2017-11-06T16:40:40.653Z,26.70
2017-11-06T16:43:12.544Z,21.63
2017-11-06T16:45:44.440Z,27.97
2017-11-06T16:48:16.325Z,28.23
2017-11-06T16:50:48.231Z,31.77
2017-11-06T16:53:20.116Z,25.70
2017-11-06T16:55:52.788Z,23.10
2017-11-06T16:58:25.489Z,30.40
2017-11-06T17:00:57.384Z,32.50
2017-11-06T17:03:29.264Z,22.97
2017-11-06T17:06:01.200Z,29.13
2017-11-06T17:08:33.085Z,28.43
2017-11-06T17:11:05.005Z,27.10
2017-11-06T17:13:36.924Z,26.73
2017-11-06T17:16:08.836Z,22.37
2017-11-06T17:18:40.713Z,30.33
2017-11-06T17:21:12.636Z,28.20
2017-11-06T17:23:44.512Z,29.20
2017-11-06T17:26:16.449Z,24.13
2017-11-06T17:28:48.336Z,24.27
2017-11-06T17:31:20.232Z,25.20
2017-11-06T17:33:52.115Z,25.70
2017-11-06T17:36:24.813Z,22.87
2017-11-06T17:38:56.691Z,27.63
2017-11-06T17:41:28.608Z,28.73
2017-11-06T17:44:00.492Z,26.97
2017-11-06T17:46:32.419Z,30.07
2017-11-06T17:49:04.292Z,31.97
2017-11-06T17:51:36.977Z,41.17
2017-11-06T17:54:09.621Z,41.07
2017-11-06T17:56:41.524Z,41.90
2017-11-06T17:59:13.409Z,44.10
2017-11-06T18:01:45.308Z,48.30
2017-11-06T18:04:17.198Z,33.67
2017-11-06T18:06:49.120Z,36.00
2017-11-06T18:09:21.003Z,28.30
2017-11-06T18:11:52.928Z,37.70
2017-11-06T18:14:24.805Z,34.17
2017-11-06T18:16:56.699Z,27.40
2017-11-06T18:19:29.355Z,31.40
2017-11-06T18:22:01.364Z,37.10
2017-11-06T18:24:33.248Z,41.07
2017-11-06T18:27:05.211Z,42.03
2017-11-06T18:29:37.089Z,36.23
2017-11-06T18:32:09.007Z,48.53
2017-11-06T18:34:40.888Z,38.40
2017-11-06T18:37:12.816Z,34.57
2017-11-06T18:39:44.692Z,33.83
2017-11-06T18:42:16.609Z,33.07
2017-11-06T18:44:48.499Z,51.30
2017-11-06T18:47:20.411Z,51.30
2017-11-06T18:49:52.297Z,43.97
2017-11-06T18:52:24.255Z,43.60
2017-11-06T18:54:56.914Z,35.03
2017-11-06T18:57:28.831Z,35.10
2017-11-06T19:00:00.725Z,34.00
2017-11-06T19:02:36.945Z,41.87
2017-11-06T19:05:08.845Z,33.93
2017-11-06T19:07:40.789Z,45.63
2017-11-06T19:10:14.169Z,38.57
2017-11-06T19:12:46.111Z,50.37
2017-11-06T19:15:18.757Z,44.23
2017-11-06T19:17:50.663Z,52.37
2017-11-06T19:20:22.548Z,43.30
2017-11-06T19:22:54.436Z,44.40
2017-11-06T19:25:26.316Z,37.13
2017-11-06T19:27:58.219Z,45.60
2017-11-06T19:30:30.104Z,36.07
2017-11-06T19:33:02.024Z,43.60
2017-11-06T19:35:33.908Z,45.00
2017-11-06T19:38:05.860Z,40.17
2017-11-06T19:40:37.745Z,57.10
2017-11-06T19:43:09.676Z,39.20
2017-11-06T19:45:41.581Z,51.33
2017-11-06T19:48:13.497Z,50.50
2017-11-06T19:50:45.388Z,50.50
2017-11-06T19:53:17.304Z,48.87
2017-11-06T19:55:49.946Z,47.57
2017-11-06T19:58:21.874Z,47.80
2017-11-06T20:00:53.763Z,52.77
2017-11-06T20:03:25.681Z,52.23
2017-11-06T20:05:57.560Z,43.87
2017-11-06T20:08:29.497Z,40.63
2017-11-06T20:11:01.389Z,36.40
2017-11-06T20:13:33.303Z,45.10
2017-11-06T20:16:05.177Z,42.47
2017-11-06T20:18:37.122Z,36.73
2017-11-06T20:21:09.024Z,42.17
2017-11-06T20:23:40.976Z,47.63
2017-11-06T20:26:12.925Z,63.07
2017-11-06T20:28:44.831Z,75.73
2017-11-06T20:31:16.799Z,69.23
2017-11-06T20:33:49.484Z,69.37
2017-11-06T20:36:21.443Z,70.70
2017-11-06T20:38:53.345Z,69.17
2017-11-06T20:41:25.241Z,65.07
2017-11-06T20:43:57.149Z,64.90
2017-11-06T20:46:29.811Z,67.77
2017-11-06T20:49:01.730Z,52.63
2017-11-06T20:51:33.608Z,51.13
2017-11-06T20:54:06.294Z,59.50
2017-11-06T20:56:38.172Z,61.83
2017-11-06T20:59:10.102Z,47.50
2017-11-06T21:01:41.980Z,62.27
2017-11-06T21:04:14.186Z,61.40
2017-11-06T21:06:46.092Z,71.27
2017-11-06T21:09:18.027Z,42.10
2017-11-06T21:11:49.928Z,58.23
2017-11-06T21:14:22.931Z,50.37
2017-11-06T21:16:54.813Z,52.53
2017-11-06T21:19:27.504Z,59.90
